createdAt,value
2022-12-03T00:05:59.248Z,38.36
2022-12-03T00:45:59.397Z,38.36
2022-12-03T01:05:59.361Z,38.37
2022-12-03T01:25:59.371Z,38.36
2022-12-03T01:45:59.364Z,38.37
2022-12-03T02:05:59.361Z,38.37
2022-12-03T02:25:58.579Z,38.38
2022-12-03T02:45:58.812Z,38.37
2022-12-03T03:05:59.342Z,38.37
2022-12-03T03:25:59.333Z,38.37
2022-12-03T03:45:59.448Z,38.37
2022-12-03T04:05:59.333Z,38.38
2022-12-03T05:05:59.319Z,38.37
2022-12-03T05:25:59.319Z,38.38
2022-12-03T05:45:59.371Z,38.38
2022-12-03T06:05:59.299Z,38.39
2022-12-03T06:45:59.317Z,38.38
2022-12-03T07:05:59.162Z,38.38
2022-12-03T07:25:59.296Z,38.39
2022-12-03T07:45:58.508Z,38.39
2022-12-03T08:05:59.294Z,38.39
2022-12-03T08:45:59.313Z,38.39
2022-12-03T09:05:58.757Z,38.39
2022-12-03T09:25:59.266Z,38.39
2022-12-03T09:45:59.318Z,38.39
2022-12-03T10:05:59.258Z,38.39
2022-12-03T10:25:59.255Z,38.39
2022-12-03T10:46:03.460Z,38.39
2022-12-03T11:05:59.094Z,38.39
2022-12-03T11:25:59.225Z,38.39
2022-12-03T11:46:04.039Z,38.39
2022-12-03T12:05:58.440Z,38.39
2022-12-03T12:25:59.210Z,38.39
2022-12-03T12:45:59.424Z,38.39
2022-12-03T13:05:58.676Z,38.4
2022-12-03T13:26:06.518Z,38.4
2022-12-03T13:45:59.334Z,38.39
2022-12-03T14:05:58.404Z,38.4
2022-12-03T14:26:30.645Z,38.4
2022-12-03T14:45:59.239Z,38.4
2022-12-03T15:05:59.168Z,38.41
2022-12-03T15:25:59.157Z,38.41
2022-12-03T15:45:59.195Z,38.41
2022-12-03T16:05:59.153Z,38.4
2022-12-03T17:05:58.357Z,38.41
2022-12-03T17:25:58.617Z,38.41
2022-12-03T19:25:59.117Z,38.42
2022-12-03T20:05:59.113Z,38.43
2022-12-03T21:05:59.104Z,38.44
2022-12-03T21:45:59.006Z,38.44
2022-12-03T22:25:58.313Z,38.44
2022-12-03T22:45:59.115Z,38.44
2022-12-03T23:25:58.559Z,38.44
2022-12-03T23:45:59.155Z,38.44
